createdAt,value
2023-02-08T00:00:17.820Z,22.33
2023-02-08T00:05:22.809Z,22.03
2023-02-08T00:10:26.692Z,21.40
2023-02-08T00:15:30.342Z,20.98
2023-02-08T00:20:35.074Z,20.05
2023-02-08T00:25:38.607Z,20.73
2023-02-08T00:30:43.464Z,21.98
2023-02-08T00:35:48.586Z,26.48
2023-02-08T00:40:52.068Z,22.15
2023-02-08T00:45:56.558Z,19.98
2023-02-08T00:51:04.951Z,23.10
2023-02-08T00:56:09.117Z,24.70
2023-02-08T01:01:13.722Z,23.75
2023-02-08T01:06:19.439Z,22.33
2023-02-08T01:11:26.072Z,23.88
2023-02-08T01:16:33.030Z,22.48
2023-02-08T01:21:40.590Z,22.73
2023-02-08T01:26:43.993Z,22.87
2023-02-08T01:31:47.604Z,24.15
2023-02-08T01:36:52.399Z,22.13
2023-02-08T01:41:55.991Z,24.45
2023-02-08T01:46:59.260Z,22.90
2023-02-08T01:52:07.780Z,22.80
2023-02-08T01:57:11.960Z,23.23
2023-02-08T02:02:18.932Z,22.70
2023-02-08T02:07:29.409Z,25.70
2023-02-08T02:12:34.270Z,23.27
2023-02-08T02:17:38.741Z,24.17
2023-02-08T02:23:18.756Z,22.30
2023-02-08T02:29:01.426Z,21.47
2023-02-08T02:34:11.771Z,20.37
2023-02-08T02:39:22.043Z,23.33
2023-02-08T02:44:35.011Z,22.92
2023-02-08T02:49:49.234Z,23.40
2023-02-08T02:54:54.314Z,21.40
2023-02-08T02:59:59.550Z,22.00
2023-02-08T03:05:07.154Z,20.50
2023-02-08T03:10:26.066Z,20.70
2023-02-08T03:15:36.549Z,21.05
2023-02-08T03:20:44.228Z,22.70
2023-02-08T03:25:53.754Z,22.23
2023-02-08T03:31:06.767Z,20.97
2023-02-08T03:36:18.143Z,23.30
2023-02-08T03:41:27.564Z,22.23
2023-02-08T03:46:35.088Z,25.10
2023-02-08T03:51:40.741Z,21.50
2023-02-08T03:56:48.324Z,22.05
2023-02-08T04:01:56.838Z,23.25
2023-02-08T04:07:01.750Z,21.80
2023-02-08T04:12:05.608Z,23.40
2023-02-08T04:17:08.914Z,24.37
2023-02-08T04:22:13.623Z,27.67
2023-02-08T04:27:16.958Z,30.02
2023-02-08T04:32:20.271Z,30.38
2023-02-08T04:37:25.063Z,26.88
2023-02-08T04:42:28.444Z,27.70
2023-02-08T04:47:31.757Z,30.15
2023-02-08T04:52:36.480Z,28.33
2023-02-08T04:57:39.874Z,25.00
2023-02-08T05:02:43.284Z,28.85
2023-02-08T05:07:48.123Z,28.97
2023-02-08T05:12:51.613Z,24.15
2023-02-08T05:17:55.046Z,25.40
2023-02-08T05:22:59.793Z,26.50
2023-02-08T05:28:03.231Z,23.55
2023-02-08T05:33:06.591Z,27.58
2023-02-08T05:38:11.240Z,25.85
2023-02-08T05:43:14.526Z,24.73
2023-02-08T05:48:17.884Z,30.00
2023-02-08T05:53:22.636Z,26.33
2023-02-08T05:58:26.712Z,23.05
2023-02-08T06:03:30.110Z,24.67
2023-02-08T06:08:34.930Z,24.67
2023-02-08T06:13:39.265Z,20.40
2023-02-08T06:18:42.902Z,46.83
2023-02-08T06:23:47.611Z,27.23
2023-02-08T06:28:50.907Z,27.00
2023-02-08T06:33:54.267Z,27.03
2023-02-08T06:38:59.192Z,24.17
2023-02-08T06:44:02.678Z,25.25
2023-02-08T06:49:06.074Z,22.97
2023-02-08T06:54:11.125Z,21.55
2023-02-08T06:59:14.517Z,22.42
2023-02-08T07:04:17.846Z,20.80
2023-02-08T07:09:22.652Z,22.27
2023-02-08T07:14:26.084Z,19.65
2023-02-08T07:19:29.898Z,21.03
2023-02-08T07:24:35.247Z,21.70
2023-02-08T07:29:39.399Z,20.08
2023-02-08T07:34:42.775Z,19.15
2023-02-08T07:39:47.461Z,18.92
2023-02-08T07:44:50.832Z,22.27
2023-02-08T07:49:54.148Z,16.57
2023-02-08T07:54:58.922Z,17.63
2023-02-08T08:00:02.349Z,16.87
2023-02-08T08:05:15.412Z,15.85
2023-02-08T08:10:20.305Z,16.20
2023-02-08T08:15:23.623Z,12.25
2023-02-08T08:20:27.291Z,13.25
2023-02-08T08:25:32.033Z,14.05
2023-02-08T08:30:35.382Z,13.20
2023-02-08T08:35:38.915Z,18.52
2023-02-08T08:40:43.757Z,15.10
2023-02-08T08:45:47.192Z,15.45
2023-02-08T08:50:50.476Z,16.17
2023-02-08T08:55:55.177Z,16.45
2023-02-08T09:01:00.394Z,16.08
2023-02-08T09:06:03.942Z,14.82
2023-02-08T09:11:10.740Z,16.17
2023-02-08T09:16:16.338Z,17.38
2023-02-08T09:21:22.131Z,19.25
2023-02-08T09:26:26.933Z,18.13
2023-02-08T09:31:32.969Z,18.50
2023-02-08T09:36:38.844Z,18.17
2023-02-08T09:42:08.185Z,18.45
2023-02-08T09:47:17.402Z,18.88
2023-02-08T09:52:26.305Z,18.65
2023-02-08T09:57:35.578Z,19.92
2023-02-08T10:02:39.091Z,19.13
2023-02-08T10:07:43.978Z,20.80
2023-02-08T10:12:57.043Z,20.50
2023-02-08T10:18:26.256Z,21.17
2023-02-08T10:23:42.167Z,20.67
2023-02-08T10:29:08.690Z,20.35
2023-02-08T10:34:25.000Z,21.55
2023-02-08T10:39:35.504Z,19.48
2023-02-08T10:44:53.003Z,19.50
2023-02-08T10:50:02.643Z,20.55
2023-02-08T10:55:15.148Z,17.87
2023-02-08T11:00:22.432Z,14.35
2023-02-08T11:05:34.983Z,15.45
2023-02-08T11:10:39.073Z,15.80
2023-02-08T11:15:48.201Z,14.82
2023-02-08T11:20:54.586Z,16.98
2023-02-08T11:26:18.878Z,16.00
2023-02-08T11:31:23.528Z,15.00
2023-02-08T11:36:27.251Z,14.07
2023-02-08T11:41:31.199Z,14.05
2023-02-08T11:46:37.480Z,14.57
2023-02-08T11:51:41.051Z,15.33
2023-02-08T11:56:44.357Z,15.27
2023-02-08T12:01:49.067Z,14.13
2023-02-08T12:07:22.738Z,14.82
2023-02-08T12:12:32.670Z,13.63
2023-02-08T12:18:03.914Z,13.63
2023-02-08T12:23:36.147Z,13.80
2023-02-08T12:28:50.588Z,12.83
2023-02-08T12:34:05.244Z,13.57
2023-02-08T12:39:37.600Z,13.73
2023-02-08T12:44:51.542Z,12.45
2023-02-08T12:50:04.641Z,12.77
2023-02-08T12:55:18.289Z,13.85
2023-02-08T13:00:24.530Z,12.80
2023-02-08T13:05:34.639Z,12.73
2023-02-08T13:10:41.614Z,13.00
2023-02-08T13:15:50.485Z,12.40
2023-02-08T13:20:58.017Z,11.40
2023-02-08T13:26:07.391Z,13.13
2023-02-08T13:31:15.668Z,11.17
2023-02-08T13:36:25.931Z,12.05
2023-02-08T13:41:30.766Z,12.10
2023-02-08T13:46:39.724Z,11.37
2023-02-08T13:51:55.400Z,10.60
2023-02-08T13:56:59.423Z,11.00
2023-02-08T14:02:28.598Z,11.07
2023-02-08T14:07:44.551Z,10.40
2023-02-08T14:12:56.198Z,10.40
2023-02-08T14:18:01.261Z,9.18
2023-02-08T14:23:08.954Z,11.68
2023-02-08T14:28:26.793Z,11.82
2023-02-08T14:33:33.159Z,10.95
2023-02-08T14:44:56.119Z,13.43
2023-02-08T14:50:07.204Z,9.90
2023-02-08T14:55:17.504Z,9.30
2023-02-08T15:00:25.593Z,8.98
2023-02-08T15:05:31.313Z,9.33
2023-02-08T15:10:36.282Z,9.85
2023-02-08T15:15:44.085Z,10.40
2023-02-08T15:20:57.242Z,8.38
2023-02-08T15:26:02.184Z,9.13
2023-02-08T15:31:10.257Z,9.97
2023-02-08T15:36:18.954Z,10.50
2023-02-08T15:41:27.690Z,11.35
2023-02-08T15:46:33.207Z,12.68
2023-02-08T15:51:36.902Z,11.65
2023-02-08T15:56:42.559Z,11.43
2023-02-08T16:01:49.714Z,14.17
2023-02-08T16:06:55.712Z,10.37
2023-02-08T16:12:01.867Z,10.43
2023-02-08T16:27:31.784Z,11.70
2023-02-08T19:30:11.848Z,15.70
2023-02-08T19:35:16.545Z,13.18
2023-02-08T19:40:20.799Z,12.35
2023-02-08T19:45:25.232Z,13.00
2023-02-08T19:50:30.033Z,14.02
2023-02-08T19:55:33.550Z,13.43
2023-02-08T20:00:37.425Z,13.80
2023-02-08T20:05:42.490Z,14.30
2023-02-08T20:10:48.586Z,9.90
2023-02-08T20:15:51.949Z,9.40
2023-02-08T20:21:03.957Z,10.45
2023-02-08T20:26:09.842Z,10.82
2023-02-08T20:31:15.711Z,8.35
2023-02-08T20:36:22.156Z,5.57
2023-02-08T20:41:27.716Z,6.97
2023-02-08T20:46:33.840Z,6.78
2023-02-08T20:51:38.736Z,6.38
2023-02-08T20:56:42.085Z,2.37
2023-02-08T21:01:46.598Z,3.30
2023-02-08T21:06:52.536Z,2.43
2023-02-08T21:11:56.023Z,4.73
2023-02-08T21:16:59.676Z,5.50
2023-02-08T21:22:04.570Z,2.20
2023-02-08T21:27:07.989Z,4.73
2023-02-08T21:32:11.300Z,4.00
2023-02-08T21:37:16.298Z,3.87
2023-02-08T21:42:19.667Z,7.10
2023-02-08T21:47:23.027Z,6.27
2023-02-08T21:52:44.973Z,7.03
2023-02-08T21:57:48.324Z,8.93
2023-02-08T22:02:51.755Z,8.07
2023-02-08T22:07:58.317Z,5.50
2023-02-08T22:13:02.196Z,5.33
2023-02-08T22:18:06.297Z,3.60
2023-02-08T22:23:10.936Z,6.93
2023-02-08T22:28:14.974Z,4.27
2023-02-08T22:33:18.879Z,3.83
2023-02-08T22:38:23.641Z,4.63
2023-02-08T22:43:26.988Z,4.07
2023-02-08T22:48:30.692Z,4.37
2023-02-08T22:53:35.464Z,6.57
2023-02-08T22:58:38.755Z,4.40
2023-02-08T23:03:42.243Z,3.33
2023-02-08T23:08:48.220Z,2.70
2023-02-08T23:13:51.652Z,4.37
2023-02-08T23:18:55.299Z,4.20
2023-02-08T23:24:00.030Z,6.70
2023-02-08T23:29:03.631Z,3.90
2023-02-08T23:34:06.997Z,6.33
2023-02-08T23:39:11.990Z,8.00
2023-02-08T23:44:15.280Z,7.22
2023-02-08T23:49:18.682Z,5.50
2023-02-08T23:54:23.376Z,4.03
2023-02-08T23:59:26.713Z,2.73
